createdAt,value
2023-02-12T00:00:03.846Z,30.27
2023-02-12T00:02:30.895Z,29.17
2023-02-12T00:04:57.701Z,31.30
2023-02-12T00:07:24.424Z,29.37
2023-02-12T00:09:51.248Z,31.03
2023-02-12T00:12:18.158Z,31.80
2023-02-12T00:14:45.211Z,30.47
2023-02-12T00:17:11.998Z,30.70
2023-02-12T00:19:38.733Z,34.03
2023-02-12T00:22:05.558Z,33.20
2023-02-12T00:24:33.344Z,37.50
2023-02-12T00:27:00.102Z,36.37
2023-02-12T00:29:26.974Z,40.37
2023-02-12T00:31:53.786Z,42.10
2023-02-12T00:34:20.515Z,39.60
2023-02-12T00:36:47.245Z,37.97
2023-02-12T00:39:14.018Z,35.47
2023-02-12T00:41:40.709Z,35.40
2023-02-12T00:44:07.422Z,35.50
2023-02-12T00:46:34.216Z,34.07
2023-02-12T00:49:00.980Z,34.77
2023-02-12T00:51:27.691Z,34.60
2023-02-12T00:53:54.452Z,33.97
2023-02-12T00:56:21.299Z,32.97
2023-02-12T00:58:48.046Z,32.90
2023-02-12T01:01:15.037Z,35.30
2023-02-12T01:03:41.895Z,35.60
2023-02-12T01:06:08.987Z,55.33
2023-02-12T01:08:36.146Z,82.57
2023-02-12T01:11:05.206Z,65.07
2023-02-12T01:13:32.936Z,69.60
2023-02-12T01:16:08.959Z,71.10
2023-02-12T01:18:37.253Z,51.50
2023-02-12T01:21:10.113Z,35.03
2023-02-12T01:23:36.894Z,33.50
2023-02-12T01:26:04.694Z,33.80
2023-02-12T01:28:31.504Z,32.70
2023-02-12T01:30:58.389Z,34.70
2023-02-12T01:33:25.196Z,31.97
2023-02-12T01:35:52.008Z,31.43
2023-02-12T01:38:18.940Z,32.67
2023-02-12T01:40:45.694Z,36.97
2023-02-12T01:43:13.080Z,33.00
2023-02-12T01:45:50.332Z,34.30
2023-02-12T01:48:18.833Z,31.17
2023-02-12T01:50:48.102Z,30.40
2023-02-12T01:53:20.230Z,33.00
2023-02-12T01:55:50.854Z,31.77
2023-02-12T01:58:18.067Z,32.73
2023-02-12T02:00:45.598Z,31.20
2023-02-12T02:03:13.112Z,32.93
2023-02-12T02:05:53.090Z,32.03
2023-02-12T02:08:19.948Z,30.83
2023-02-12T02:10:46.705Z,32.97
2023-02-12T02:13:32.502Z,32.13
2023-02-12T02:16:29.873Z,35.20
2023-02-12T02:19:02.428Z,35.20
2023-02-12T02:21:42.110Z,34.10
2023-02-12T02:24:47.664Z,34.27
2023-02-12T02:27:42.235Z,32.13
2023-02-12T02:30:40.538Z,33.10
2023-02-12T02:33:30.362Z,31.03
2023-02-12T02:36:14.232Z,31.90
2023-02-12T02:38:57.262Z,31.70
2023-02-12T02:42:00.666Z,32.13
2023-02-12T02:44:36.632Z,33.97
2023-02-12T02:47:07.442Z,33.90
2023-02-12T02:49:42.912Z,31.50
2023-02-12T02:52:19.798Z,31.77
2023-02-12T02:54:55.917Z,33.53
2023-02-12T02:57:30.376Z,33.03
2023-02-12T03:00:27.423Z,32.03
2023-02-12T03:03:02.634Z,31.83
2023-02-12T03:05:34.303Z,35.83
2023-02-12T03:08:16.835Z,32.80
2023-02-12T03:10:49.917Z,31.43
2023-02-12T03:13:43.428Z,33.47
2023-02-12T03:16:20.317Z,32.53
2023-02-12T03:18:56.830Z,34.17
2023-02-12T03:21:35.848Z,31.53
2023-02-12T03:24:11.793Z,32.80
2023-02-12T03:26:44.778Z,31.77
2023-02-12T03:29:12.406Z,32.50
2023-02-12T03:31:56.278Z,32.40
2023-02-12T03:34:34.404Z,34.37
2023-02-12T03:37:35.547Z,31.50
2023-02-12T03:40:22.232Z,35.50
2023-02-12T03:43:01.760Z,32.73
2023-02-12T03:45:58.078Z,33.10
2023-02-12T03:48:38.507Z,31.13
2023-02-12T03:51:22.180Z,32.30
2023-02-12T03:53:49.452Z,32.93
2023-02-12T03:56:32.838Z,33.40
2023-02-12T03:58:59.984Z,33.53
2023-02-12T04:01:27.762Z,32.57
2023-02-12T04:03:55.300Z,32.60
2023-02-12T04:06:28.904Z,31.90
2023-02-12T04:09:03.451Z,32.37
2023-02-12T04:11:37.407Z,31.90
2023-02-12T04:14:22.798Z,32.30
2023-02-12T04:16:57.875Z,33.07
2023-02-12T04:19:36.919Z,31.53
2023-02-12T04:22:14.565Z,30.87
2023-02-12T04:25:02.538Z,32.97
2023-02-12T04:27:35.518Z,31.90
2023-02-12T04:30:20.792Z,31.17
2023-02-12T04:32:53.522Z,32.77
2023-02-12T04:35:35.148Z,31.97
2023-02-12T04:38:25.290Z,33.27
2023-02-12T04:40:52.877Z,34.50
2023-02-12T04:43:30.577Z,32.67
2023-02-12T04:45:57.762Z,31.90
2023-02-12T04:48:24.699Z,32.37
2023-02-12T04:50:51.441Z,31.30
2023-02-12T04:53:18.669Z,31.40
2023-02-12T04:55:45.581Z,29.50
2023-02-12T04:58:12.398Z,31.03
2023-02-12T05:00:39.332Z,30.47
2023-02-12T05:03:06.482Z,28.47
2023-02-12T05:05:33.405Z,30.10
2023-02-12T05:08:00.134Z,31.97
2023-02-12T05:10:26.915Z,31.27
2023-02-12T05:12:55.000Z,30.27
2023-02-12T05:15:22.014Z,30.67
2023-02-12T05:17:48.768Z,30.23
2023-02-12T05:20:15.513Z,32.43
2023-02-12T05:22:42.245Z,30.53
2023-02-12T05:25:08.982Z,30.90
2023-02-12T05:27:35.765Z,30.80
2023-02-12T05:30:02.618Z,32.33
2023-02-12T05:32:29.347Z,32.20
2023-02-12T05:34:56.195Z,29.40
2023-02-12T05:37:23.258Z,32.07
2023-02-12T05:39:50.544Z,30.70
2023-02-12T05:42:17.336Z,31.97
2023-02-12T05:44:44.033Z,30.43
2023-02-12T05:47:11.044Z,31.07
2023-02-12T05:49:37.921Z,32.17
2023-02-12T05:52:04.734Z,29.50
2023-02-12T05:54:31.486Z,33.00
2023-02-12T05:56:58.159Z,33.00
2023-02-12T05:59:25.472Z,31.07
2023-02-12T06:01:52.952Z,30.90
2023-02-12T06:04:25.026Z,31.70
2023-02-12T06:06:55.903Z,31.63
2023-02-12T06:09:23.168Z,28.90
2023-02-12T06:11:50.091Z,28.27
2023-02-12T06:14:19.308Z,30.57
2023-02-12T06:16:48.463Z,28.90
2023-02-12T06:19:16.046Z,30.33
2023-02-12T06:21:42.732Z,30.67
2023-02-12T06:24:12.267Z,28.73
2023-02-12T06:26:39.298Z,32.03
2023-02-12T06:29:06.041Z,32.37
2023-02-12T06:31:35.461Z,32.57
2023-02-12T06:34:06.102Z,30.13
2023-02-12T06:36:33.587Z,34.47
2023-02-12T06:39:03.763Z,30.60
2023-02-12T06:41:30.864Z,29.90
2023-02-12T06:43:57.792Z,34.03
2023-02-12T06:46:24.841Z,31.77
2023-02-12T06:48:56.063Z,31.80
2023-02-12T06:51:23.667Z,32.70
2023-02-12T06:53:52.223Z,32.50
2023-02-12T06:56:20.535Z,31.10
2023-02-12T06:58:52.499Z,31.90
2023-02-12T07:01:21.761Z,31.73
2023-02-12T07:03:59.729Z,31.00
2023-02-12T07:06:28.169Z,30.13
2023-02-12T07:08:58.603Z,33.00
2023-02-12T07:11:27.802Z,33.80
2023-02-12T07:13:54.603Z,30.90
2023-02-12T07:16:21.648Z,31.90
2023-02-12T07:18:48.524Z,33.20
2023-02-12T07:21:16.774Z,31.60
2023-02-12T07:23:50.869Z,34.07
2023-02-12T07:26:19.352Z,32.47
2023-02-12T07:28:46.069Z,30.40
2023-02-12T07:31:21.266Z,31.00
2023-02-12T07:33:48.957Z,32.70
2023-02-12T07:36:18.105Z,31.57
2023-02-12T07:38:45.348Z,32.30
2023-02-12T07:41:14.058Z,31.77
2023-02-12T07:43:41.705Z,34.33
2023-02-12T07:46:14.234Z,32.90
2023-02-12T07:48:41.105Z,31.53
2023-02-12T07:51:10.820Z,31.53
2023-02-12T07:53:38.461Z,32.03
2023-02-12T07:56:13.931Z,32.40
2023-02-12T07:58:42.388Z,32.63
2023-02-12T08:01:24.200Z,31.13
2023-02-12T08:03:51.555Z,33.43
2023-02-12T08:06:26.290Z,30.90
2023-02-12T08:08:58.433Z,31.77
2023-02-12T08:11:26.999Z,31.87
2023-02-12T08:13:54.190Z,32.87
2023-02-12T08:16:26.952Z,33.03
2023-02-12T08:18:55.158Z,32.70
2023-02-12T08:21:24.979Z,32.17
2023-02-12T08:23:54.047Z,33.53
2023-02-12T08:26:35.640Z,31.87
2023-02-12T08:29:05.639Z,31.70
2023-02-12T08:31:35.228Z,29.77
2023-02-12T08:34:02.826Z,32.90
2023-02-12T08:36:40.140Z,32.43
2023-02-12T08:39:08.343Z,33.13
2023-02-12T08:41:35.853Z,34.13
2023-02-12T08:44:04.876Z,34.03
2023-02-12T08:46:37.344Z,32.27
2023-02-12T08:49:11.339Z,36.57
2023-02-12T08:51:41.214Z,36.50
2023-02-12T08:54:15.947Z,38.40
2023-02-12T08:56:43.057Z,35.37
2023-02-12T08:59:11.350Z,34.83
2023-02-12T09:01:39.179Z,35.07
2023-02-12T09:04:06.731Z,37.27
2023-02-12T09:06:35.299Z,35.83
2023-02-12T09:09:02.779Z,32.50
2023-02-12T09:11:32.818Z,36.50
2023-02-12T09:14:01.679Z,33.80
2023-02-12T09:16:29.765Z,36.17
2023-02-12T09:18:57.044Z,33.90
2023-02-12T09:21:24.286Z,34.93
2023-02-12T09:23:51.651Z,36.30
2023-02-12T09:26:21.745Z,36.23
2023-02-12T09:28:50.405Z,36.70
2023-02-12T09:31:26.448Z,35.77
2023-02-12T09:33:55.632Z,35.23
2023-02-12T09:36:22.657Z,33.63
2023-02-12T09:38:49.787Z,35.37
2023-02-12T09:41:34.826Z,37.73
2023-02-12T09:44:22.190Z,36.43
2023-02-12T09:47:25.114Z,35.00
2023-02-12T09:49:51.779Z,34.73
2023-02-12T09:52:21.524Z,36.10
2023-02-12T09:54:49.611Z,38.00
2023-02-12T09:57:37.735Z,34.37
2023-02-12T10:00:31.266Z,30.93
2023-02-12T10:03:05.353Z,29.30
2023-02-12T10:05:54.950Z,32.53
2023-02-12T10:08:42.854Z,30.23
2023-02-12T10:11:36.572Z,30.57
2023-02-12T10:14:03.296Z,32.23
2023-02-12T10:16:43.155Z,30.17
2023-02-12T10:19:33.510Z,29.23
2023-02-12T10:22:24.060Z,26.97
2023-02-12T10:24:59.852Z,26.30
2023-02-12T10:27:52.336Z,25.60
2023-02-12T10:30:28.226Z,27.83
2023-02-12T10:33:03.446Z,23.57
2023-02-12T10:35:32.302Z,22.17
2023-02-12T10:38:07.822Z,21.80
2023-02-12T10:40:37.628Z,19.70
2023-02-12T10:43:04.501Z,19.20
2023-02-12T10:45:34.547Z,16.23
2023-02-12T10:48:04.371Z,12.40
2023-02-12T10:50:48.817Z,11.90
2023-02-12T10:53:25.844Z,9.33
2023-02-12T10:56:12.836Z,8.30
2023-02-12T10:58:42.073Z,6.27
2023-02-12T11:01:22.501Z,5.10
2023-02-12T11:03:49.415Z,5.40
2023-02-12T11:06:23.346Z,5.20
2023-02-12T11:08:50.273Z,5.20
2023-02-12T11:11:28.289Z,5.60
2023-02-12T11:14:05.180Z,6.77
2023-02-12T11:20:18.800Z,9.93
2023-02-12T11:22:54.619Z,7.77
2023-02-12T11:25:23.716Z,7.50
2023-02-12T11:28:20.041Z,7.10
2023-02-12T11:30:59.362Z,7.57
2023-02-12T11:33:45.719Z,6.27
2023-02-12T11:36:22.075Z,7.10
2023-02-12T11:38:52.988Z,7.13
2023-02-12T11:41:34.618Z,7.03
2023-02-12T11:44:20.169Z,7.27
2023-02-12T11:47:07.024Z,8.57
2023-02-12T11:49:39.047Z,7.53
2023-02-12T11:52:07.683Z,9.10
2023-02-12T11:54:42.863Z,8.47
2023-02-12T11:57:37.060Z,8.57
2023-02-12T12:00:38.292Z,7.93
2023-02-12T12:03:16.296Z,8.80
2023-02-12T12:05:50.238Z,9.73
2023-02-12T12:08:31.530Z,8.13
2023-02-12T12:11:33.991Z,9.07
2023-02-12T12:14:15.484Z,8.30
2023-02-12T12:17:22.981Z,8.87
2023-02-12T12:20:10.392Z,7.53
2023-02-12T12:23:02.696Z,6.70
2023-02-12T12:25:50.941Z,7.40
2023-02-12T12:28:35.125Z,6.83
2023-02-12T12:31:07.898Z,7.37
2023-02-12T12:33:40.439Z,6.50
2023-02-12T12:36:13.052Z,7.03
2023-02-12T12:38:49.148Z,7.00
2023-02-12T12:41:22.381Z,7.27
2023-02-12T12:43:57.927Z,6.67
2023-02-12T12:46:28.984Z,7.20
2023-02-12T12:48:55.871Z,6.63
2023-02-12T12:51:50.232Z,7.00
2023-02-12T12:55:01.669Z,6.80
2023-02-12T12:57:31.134Z,6.63
2023-02-12T13:00:07.208Z,7.20
2023-02-12T13:02:52.876Z,5.57
2023-02-12T13:05:59.668Z,6.20
2023-02-12T13:09:03.164Z,7.20
2023-02-12T13:12:08.364Z,7.23
2023-02-12T13:15:01.521Z,6.23
2023-02-12T13:17:46.381Z,5.90
2023-02-12T13:20:18.985Z,6.20
2023-02-12T13:22:59.888Z,6.17
2023-02-12T13:25:43.074Z,5.77
2023-02-12T13:28:24.346Z,6.63
2023-02-12T13:30:54.999Z,5.60
2023-02-12T13:33:42.227Z,6.40
2023-02-12T13:36:14.912Z,6.47
2023-02-12T13:38:48.436Z,6.67
2023-02-12T13:41:16.882Z,5.27
2023-02-12T13:43:53.880Z,5.27
2023-02-12T13:46:38.543Z,5.90
2023-02-12T13:49:33.876Z,5.37
2023-02-12T13:52:20.133Z,4.60
2023-02-12T13:55:00.720Z,4.20
2023-02-12T13:57:27.590Z,3.40
2023-02-12T13:59:58.180Z,4.00
2023-02-12T14:02:33.062Z,4.00
2023-02-12T14:05:13.094Z,3.73
2023-02-12T14:07:50.304Z,3.40
2023-02-12T14:10:41.098Z,3.60
2023-02-12T14:13:14.280Z,4.03
2023-02-12T14:15:46.918Z,3.30
2023-02-12T14:18:36.779Z,3.90
2023-02-12T14:21:12.432Z,3.03
2023-02-12T14:23:42.274Z,3.23
2023-02-12T14:26:16.310Z,2.57
2023-02-12T14:28:49.194Z,3.00
2023-02-12T14:31:19.227Z,3.03
2023-02-12T14:33:47.543Z,3.00
2023-02-12T14:36:32.345Z,3.40
2023-02-12T14:39:22.333Z,3.63
2023-02-12T14:41:57.362Z,3.30
2023-02-12T14:44:24.137Z,3.07
2023-02-12T14:46:55.018Z,3.23
2023-02-12T14:49:42.634Z,3.33
2023-02-12T14:52:15.766Z,3.20
2023-02-12T14:54:55.738Z,3.27
2023-02-12T14:57:39.311Z,3.53
2023-02-12T15:00:18.589Z,3.20
2023-02-12T15:02:53.669Z,2.83
2023-02-12T15:05:50.367Z,3.00
2023-02-12T15:08:52.802Z,2.80
2023-02-12T15:11:29.237Z,3.20
2023-02-12T15:14:14.726Z,3.20
2023-02-12T15:17:00.176Z,3.70
2023-02-12T15:19:40.663Z,2.53
2023-02-12T15:22:35.913Z,2.60
2023-02-12T15:25:29.999Z,3.03
2023-02-12T15:28:04.320Z,2.70
2023-02-12T15:30:35.886Z,3.00
2023-02-12T15:33:07.383Z,2.90
2023-02-12T15:35:39.589Z,3.50
2023-02-12T15:38:10.766Z,2.83
2023-02-12T15:40:37.543Z,3.00
2023-02-12T15:43:07.083Z,3.23
2023-02-12T15:45:36.140Z,2.67
2023-02-12T15:48:09.071Z,3.33
2023-02-12T15:50:45.730Z,2.70
2023-02-12T15:53:14.339Z,2.90
2023-02-12T15:55:44.524Z,3.03
2023-02-12T15:58:38.065Z,2.80
2023-02-12T16:01:06.665Z,3.20
2023-02-12T16:03:36.192Z,3.00
2023-02-12T16:06:15.134Z,3.43
2023-02-12T16:08:48.410Z,2.97
2023-02-12T16:11:20.434Z,3.20
2023-02-12T16:13:53.970Z,3.10
2023-02-12T16:16:25.187Z,2.63
2023-02-12T16:19:37.273Z,3.67
2023-02-12T16:22:16.482Z,3.40
2023-02-12T16:24:51.689Z,3.03
2023-02-12T16:27:28.651Z,3.17
2023-02-12T16:29:57.903Z,2.70
2023-02-12T16:32:33.367Z,3.80
2023-02-12T16:35:07.364Z,3.10
2023-02-12T16:37:36.918Z,3.33
2023-02-12T16:40:12.671Z,2.93
2023-02-12T16:42:47.076Z,3.90
2023-02-12T16:45:29.658Z,3.67
2023-02-12T16:48:25.539Z,5.00
2023-02-12T16:50:56.278Z,4.10
2023-02-12T16:53:27.439Z,6.10
2023-02-12T16:55:54.528Z,4.80
2023-02-12T16:58:21.434Z,5.60
2023-02-12T17:00:49.307Z,4.77
2023-02-12T17:03:16.969Z,6.87
2023-02-12T17:05:45.218Z,30.53
2023-02-12T17:08:18.234Z,13.73
2023-02-12T17:10:48.031Z,12.60
2023-02-12T17:13:16.405Z,7.80
2023-02-12T17:15:50.719Z,5.73
2023-02-12T17:18:18.326Z,6.03
2023-02-12T17:20:51.590Z,5.80
2023-02-12T17:23:18.556Z,6.00
2023-02-12T17:25:45.339Z,6.67
2023-02-12T17:28:12.498Z,6.60
2023-02-12T17:30:39.307Z,7.10
2023-02-12T17:33:06.104Z,6.80
2023-02-12T17:35:32.940Z,6.47
2023-02-12T17:37:59.739Z,6.43
2023-02-12T17:40:26.513Z,8.30
2023-02-12T17:42:53.274Z,7.63
2023-02-12T17:45:20.024Z,6.90
2023-02-12T17:47:46.808Z,6.17
2023-02-12T17:50:15.745Z,6.20
2023-02-12T17:52:42.985Z,6.90
2023-02-12T17:55:11.498Z,7.50
2023-02-12T17:57:39.279Z,8.60
2023-02-12T18:00:08.852Z,8.10
2023-02-12T18:02:35.990Z,7.73
2023-02-12T18:05:02.867Z,8.33
2023-02-12T18:07:33.329Z,8.13
2023-02-12T18:10:00.146Z,8.30
2023-02-12T18:12:26.878Z,8.50
2023-02-12T18:14:58.623Z,8.67
2023-02-12T18:17:25.836Z,7.47
2023-02-12T18:19:53.100Z,8.37
2023-02-12T18:22:20.825Z,7.87
2023-02-12T18:24:47.733Z,9.20
2023-02-12T18:27:15.161Z,9.50
2023-02-12T18:29:42.420Z,9.20
2023-02-12T18:32:14.527Z,9.50
2023-02-12T18:34:44.473Z,9.30
2023-02-12T18:37:12.853Z,9.77
2023-02-12T18:39:39.890Z,8.90
2023-02-12T18:42:07.382Z,9.73
2023-02-12T18:44:34.185Z,9.97
2023-02-12T18:47:00.969Z,11.10
2023-02-12T18:49:28.390Z,13.20
2023-02-12T18:51:55.309Z,13.47
2023-02-12T18:54:22.593Z,12.50
2023-02-12T18:56:52.134Z,14.07
2023-02-12T18:59:20.343Z,11.80
2023-02-12T19:01:48.068Z,12.93
2023-02-12T19:04:16.147Z,11.33
2023-02-12T19:06:46.460Z,10.77
2023-02-12T19:09:18.724Z,12.60
2023-02-12T19:11:47.157Z,11.77
2023-02-12T19:14:16.062Z,11.23
2023-02-12T19:16:45.015Z,12.67
2023-02-12T19:19:13.509Z,11.83
2023-02-12T19:21:40.914Z,11.70
2023-02-12T19:24:08.012Z,11.90
2023-02-12T19:26:36.518Z,12.77
2023-02-12T19:29:04.896Z,13.40
2023-02-12T19:31:37.954Z,12.40
2023-02-12T19:34:23.241Z,13.20
2023-02-12T19:36:50.444Z,12.20
2023-02-12T19:39:19.871Z,11.87
2023-02-12T19:41:47.174Z,12.73
2023-02-12T19:44:18.059Z,12.17
2023-02-12T19:46:46.919Z,11.47
2023-02-12T19:49:16.181Z,11.80
2023-02-12T19:51:43.875Z,12.37
2023-02-12T19:54:13.590Z,10.33
2023-02-12T19:56:40.913Z,11.50
2023-02-12T19:59:08.695Z,11.73
2023-02-12T20:01:35.788Z,11.90
2023-02-12T20:04:03.547Z,11.57
2023-02-12T20:06:39.924Z,12.10
2023-02-12T20:09:08.309Z,12.73
2023-02-12T20:11:39.952Z,16.30
2023-02-12T20:14:09.010Z,14.37
2023-02-12T20:16:38.293Z,15.77
2023-02-12T20:19:24.268Z,13.10
2023-02-12T20:21:56.003Z,15.50
2023-02-12T20:24:24.684Z,13.23
2023-02-12T20:26:51.927Z,12.00
2023-02-12T20:29:19.084Z,12.50
2023-02-12T20:31:48.548Z,12.70
2023-02-12T20:34:17.897Z,12.23
2023-02-12T20:36:46.187Z,13.47
2023-02-12T20:39:16.209Z,13.30
2023-02-12T20:41:43.681Z,15.20
2023-02-12T20:44:15.922Z,14.33
2023-02-12T20:46:45.347Z,26.00
2023-02-12T20:49:16.875Z,40.90
2023-02-12T20:51:44.437Z,25.63
2023-02-12T20:54:13.706Z,19.30
2023-02-12T20:56:40.639Z,17.70
2023-02-12T20:59:07.974Z,18.07
2023-02-12T21:01:37.567Z,18.30
2023-02-12T21:04:07.793Z,16.20
2023-02-12T21:06:34.912Z,18.50
2023-02-12T21:09:01.756Z,18.20
2023-02-12T21:11:29.669Z,17.80
2023-02-12T21:14:02.590Z,15.63
2023-02-12T21:16:37.197Z,15.30
2023-02-12T21:19:04.361Z,15.93
2023-02-12T21:21:34.619Z,15.67
2023-02-12T21:24:04.828Z,15.37
2023-02-12T21:26:34.898Z,15.23
2023-02-12T21:29:02.754Z,14.30
2023-02-12T21:31:35.782Z,14.93
2023-02-12T21:34:04.860Z,13.87
2023-02-12T21:36:34.499Z,15.63
2023-02-12T21:39:01.975Z,15.00
2023-02-12T21:41:32.021Z,15.40
2023-02-12T21:44:01.174Z,14.80
2023-02-12T21:46:29.372Z,15.80
2023-02-12T21:48:56.289Z,15.33
2023-02-12T21:51:27.235Z,15.37
2023-02-12T21:53:58.552Z,14.30
2023-02-12T21:56:26.487Z,15.07
2023-02-12T21:58:54.031Z,15.27
2023-02-12T22:01:26.011Z,15.10
2023-02-12T22:03:53.586Z,14.30
2023-02-12T22:06:22.424Z,15.33
2023-02-12T22:08:56.468Z,15.50
2023-02-12T22:11:23.370Z,14.70
2023-02-12T22:13:50.286Z,15.50
2023-02-12T22:16:18.639Z,15.93
2023-02-12T22:18:46.632Z,15.17
2023-02-12T22:21:15.124Z,17.03
2023-02-12T22:23:42.970Z,16.87
2023-02-12T22:26:19.316Z,16.93
2023-02-12T22:28:52.536Z,17.53
2023-02-12T22:31:25.265Z,16.00
2023-02-12T22:33:55.905Z,15.33
2023-02-12T22:36:24.644Z,14.80
2023-02-12T22:38:52.723Z,14.03
2023-02-12T22:41:19.655Z,15.40
2023-02-12T22:43:46.625Z,14.73
2023-02-12T22:46:14.808Z,15.67
2023-02-12T22:48:42.023Z,14.67
2023-02-12T22:51:10.914Z,15.40
2023-02-12T22:53:37.707Z,14.40
2023-02-12T22:56:06.144Z,14.90
2023-02-12T22:58:34.061Z,15.50
2023-02-12T23:01:09.821Z,14.30
2023-02-12T23:03:39.374Z,14.80
2023-02-12T23:06:08.691Z,13.83
2023-02-12T23:08:35.869Z,14.90
2023-02-12T23:11:02.602Z,14.10
2023-02-12T23:13:30.432Z,15.70
2023-02-12T23:15:58.336Z,14.77
2023-02-12T23:18:26.040Z,15.40
2023-02-12T23:20:53.111Z,15.20
2023-02-12T23:23:20.985Z,14.73
2023-02-12T23:25:48.306Z,13.93
2023-02-12T23:28:15.492Z,15.17
2023-02-12T23:30:42.606Z,14.50
2023-02-12T23:33:09.475Z,13.30
2023-02-12T23:35:36.309Z,14.03
2023-02-12T23:38:04.500Z,14.50
2023-02-12T23:40:32.741Z,13.40
2023-02-12T23:42:59.922Z,13.57
2023-02-12T23:45:27.373Z,16.03
2023-02-12T23:47:54.552Z,14.40
2023-02-12T23:50:21.487Z,14.40
2023-02-12T23:52:48.213Z,14.03
2023-02-12T23:55:15.077Z,14.80
2023-02-12T23:57:41.784Z,14.07
